Time;durP1;ratioP1;P1;durP2;ratioP2;P2;SDS_P1;SDS_P2;PMS_P1;PMS_P2;Temp;Humidity;BMP_temperature;BMP_pressure;BME280_temperature;BME280_humidity;BME280_pressure;Samples;Min_cycle;Max_cycle;Signal;HPM_P1;HPM_P2
2023/08/15 00:00:27;;;;;;;4.10;1.50;;;;;;;-146.27;74.03;80978.28;5023935;28;20491;-75
2023/08/15 00:02:52;;;;;;;5.93;1.67;;;;;;;-146.27;73.77;80958.19;5022592;28;20025;-72
2023/08/15 00:05:17;;;;;;;7.95;2.03;;;;;;;-146.27;71.95;81024.47;5022953;28;20117;-77
2023/08/15 00:07:43;;;;;;;7.82;1.52;;;;;;;-146.27;72.29;81090.72;5023358;28;20128;-77
2023/08/15 00:10:08;;;;;;;5.55;1.52;;;;;;;-146.27;72.82;81054.56;5022134;28;20119;-77
2023/08/15 00:12:34;;;;;;;5.97;1.70;;;;;;;-146.27;71.67;81054.56;5022568;28;20036;-76
2023/08/15 00:15:00;;;;;;;6.70;1.50;;;;;;;-146.27;70.88;81056.59;5022803;28;20049;-77
2023/08/15 00:17:26;;;;;;;10.35;2.63;;;;;;;-146.27;71.83;81044.53;5022352;28;20111;-77
2023/08/15 00:19:51;;;;;;;8.00;1.80;;;;;;;-146.27;72.27;81032.50;5021474;28;20060;-77
2023/08/15 00:22:17;;;;;;;7.40;2.17;;;;;;;-146.27;72.53;81088.72;5022517;28;20033;-78
2023/08/15 00:24:43;;;;;;;8.88;1.88;;;;;;;-146.27;71.67;81070.66;5022442;28;20029;-77
2023/08/15 00:27:08;;;;;;;9.40;2.20;;;;;;;-146.27;71.46;81062.59;5020641;28;20030;-76
2023/08/15 00:29:34;;;;;;;3.83;1.58;;;;;;;-146.27;72.38;81046.53;5022476;28;20041;-77
2023/08/15 00:31:59;;;;;;;5.07;1.88;;;;;;;-146.27;72.35;81050.56;5022264;28;20609;-76
2023/08/15 00:34:25;;;;;;;7.88;2.30;;;;;;;-146.27;72.41;81090.72;5021985;28;20451;-76
2023/08/15 00:36:50;;;;;;;7.88;2.10;;;;;;;-146.27;72.41;81078.69;5023337;28;20120;-77
2023/08/15 00:39:15;;;;;;;8.10;1.67;;;;;;;-146.27;73.55;81088.72;5022444;28;20029;-77
2023/08/15 00:41:41;;;;;;;9.57;2.28;;;;;;;-146.27;73.83;81026.47;5023147;28;20496;-76
2023/08/15 00:44:06;;;;;;;9.27;2.10;;;;;;;-146.27;74.03;81066.63;5028822;28;20030;-78
2023/08/15 00:46:32;;;;;;;7.85;1.90;;;;;;;-146.27;74.28;81078.69;5025703;28;20021;-78
2023/08/15 00:48:58;;;;;;;8.55;1.80;;;;;;;-146.27;75.73;81086.72;5016892;28;20026;-76
2023/08/15 00:51:25;;;;;;;7.25;2.50;;;;;;;-146.27;75.37;81110.81;5029426;28;20116;-77
2023/08/15 00:53:51;;;;;;;8.82;2.10;;;;;;;-146.27;76.32;81104.78;5032609;28;20025;-78
2023/08/15 00:56:18;;;;;;;9.02;2.00;;;;;;;-146.27;77.28;81098.75;5030733;28;20362;-77
2023/08/15 00:58:44;;;;;;;5.63;2.15;;;;;;;-146.27;77.33;81122.84;5031413;28;20075;-76
2023/08/15 01:01:15;;;;;;;7.03;1.92;;;;;;;-146.27;77.89;81106.78;5028083;28;21622;-77
2023/08/15 01:03:41;;;;;;;5.63;1.88;;;;;;;-146.27;78.05;81132.91;5026009;28;20112;-78
2023/08/15 01:06:07;;;;;;;8.07;1.75;;;;;;;-146.27;78.21;81155.00;5024589;28;20168;-77
2023/08/15 01:08:32;;;;;;;8.07;2.00;;;;;;;-146.27;79.25;81169.03;5026110;28;20021;-77
2023/08/15 01:10:59;;;;;;;9.18;2.33;;;;;;;-146.27;80.08;81167.03;5024972;28;20087;-75
2023/08/15 01:13:35;;;;;;;14.65;2.40;;;;;;;-146.27;79.62;81163.03;5026315;28;20440;-78
2023/08/15 01:16:03;;;;;;;13.68;3.25;;;;;;;-146.27;80.49;81207.19;5025537;28;20044;-75
2023/08/15 01:18:34;;;;;;;9.45;1.77;;;;;;;-146.27;80.64;81211.22;5024124;28;20091;-74
2023/08/15 01:21:01;;;;;;;10.68;2.05;;;;;;;-146.27;80.96;81219.25;5023368;28;20462;-75
2023/08/15 01:23:45;;;;;;;8.13;2.45;;;;;;;-146.27;81.48;81243.34;5024618;28;20485;-75
2023/08/15 01:26:11;;;;;;;11.48;2.13;;;;;;;-146.27;82.25;81199.16;5025358;28;20033;-74
2023/08/15 01:28:38;;;;;;;11.57;2.22;;;;;;;-146.27;82.21;81205.19;5023202;28;20029;-74
2023/08/15 01:31:29;;;;;;;14.25;2.33;;;;;;;-146.27;82.83;81215.22;5024954;28;20112;-75
2023/08/15 01:34:04;;;;;;;11.43;2.58;;;;;;;-146.27;83.23;81231.31;5023082;28;20108;-75
2023/08/15 01:36:33;;;;;;;10.60;2.38;;;;;;;-146.27;83.43;81273.47;5025728;28;20033;-74
2023/08/15 01:39:05;;;;;;;9.57;2.53;;;;;;;-146.27;83.14;81275.47;5024681;28;20109;-74
2023/08/15 01:41:38;;;;;;;12.63;2.97;;;;;;;-146.27;83.59;81245.34;5024943;28;20025;-74
2023/08/15 01:44:06;;;;;;;11.90;2.85;;;;;;;-146.27;83.78;81243.34;5027151;28;20022;-74
2023/08/15 01:46:32;;;;;;;14.77;2.55;;;;;;;-146.27;84.98;81269.47;5025413;28;20401;-74
2023/08/15 01:48:59;;;;;;;4.57;1.55;;;;;;;-146.27;84.94;81329.72;5041426;28;20025;-74
2023/08/15 01:51:25;;;;;;;12.70;3.20;;;;;;;-146.27;84.85;81271.47;5025240;28;20029;-75
2023/08/15 01:53:50;;;;;;;8.93;2.95;;;;;;;-146.27;86.13;81339.75;5024151;28;20036;-74
2023/08/15 01:56:15;;;;;;;12.20;2.45;;;;;;;-146.27;85.58;81271.47;5024667;28;20658;-74
2023/08/15 01:58:41;;;;;;;10.60;2.55;;;;;;;-146.27;86.05;81343.75;5024484;28;20025;-73
2023/08/15 02:01:06;;;;;;;10.70;3.50;;;;;;;-146.27;85.94;81355.81;5025269;28;20040;-74
2023/08/15 02:03:32;;;;;;;10.85;3.00;;;;;;;-146.27;86.51;81327.69;5024242;28;20485;-75
2023/08/15 02:05:57;;;;;;;10.95;2.85;;;;;;;-146.27;87.10;81335.72;5023521;28;20018;-73
2023/08/15 02:08:23;;;;;;;15.07;2.92;;;;;;;-146.27;87.17;81375.91;5025433;28;20033;-73
2023/08/15 02:10:49;;;;;;;11.18;3.30;;;;;;;-146.27;87.62;81343.75;5023907;28;20021;-74
2023/08/15 02:13:15;;;;;;;14.02;2.88;;;;;;;-146.27;87.55;81335.72;5024154;28;20459;-74
2023/08/15 02:15:40;;;;;;;13.15;3.28;;;;;;;-146.27;87.98;81339.75;5023239;28;20029;-74
2023/08/15 02:18:06;;;;;;;15.45;3.50;;;;;;;-146.27;88.46;81345.78;5026357;28;20074;-74
2023/08/15 02:20:31;;;;;;;11.07;3.35;;;;;;;-146.27;88.67;81351.78;5030619;28;20033;-75
2023/08/15 02:22:57;;;;;;;11.73;3.13;;;;;;;-146.27;88.80;81351.78;5029868;28;20029;-74
2023/08/15 02:25:22;;;;;;;16.73;3.60;;;;;;;-146.27;88.75;81359.81;5031340;28;20118;-74
2023/08/15 02:27:48;;;;;;;17.65;3.53;;;;;;;-146.27;89.29;81383.94;5029309;28;20080;-73
2023/08/15 02:30:13;;;;;;;15.30;3.45;;;;;;;-146.27;89.50;81371.88;5029671;28;20037;-74
2023/08/15 02:32:39;;;;;;;20.27;4.13;;;;;;;-146.27;90.10;81381.91;5027920;28;20462;-74
2023/08/15 02:35:04;;;;;;;10.18;3.72;;;;;;;-146.27;90.46;81387.94;5021773;28;20021;-73
2023/08/15 02:37:30;;;;;;;12.10;3.72;;;;;;;-146.27;90.60;81422.09;5024816;28;20017;-75
2023/08/15 02:39:55;;;;;;;14.30;3.10;;;;;;;-146.27;90.98;81395.97;5029378;28;20117;-74
2023/08/15 02:42:21;;;;;;;14.60;3.28;;;;;;;-146.27;91.13;81402.00;5029940;28;20485;-74
2023/08/15 02:44:46;;;;;;;13.32;3.55;;;;;;;-146.27;91.04;81395.97;5029498;28;20063;-71
2023/08/15 02:47:11;;;;;;;20.35;4.22;;;;;;;-146.27;91.21;81412.03;5030552;28;20037;-74
2023/08/15 02:49:38;;;;;;;9.93;3.17;;;;;;;-146.27;91.33;81422.09;5030353;28;20072;-74
2023/08/15 02:52:04;;;;;;;12.20;2.75;;;;;;;-146.27;91.07;81430.13;5029397;28;20061;-75
2023/08/15 02:54:30;;;;;;;12.70;3.72;;;;;;;-146.27;91.32;81412.03;5029018;28;20150;-74
2023/08/15 02:56:55;;;;;;;10.73;2.60;;;;;;;-146.27;91.67;81452.22;5028771;28;20051;-74
2023/08/15 02:59:20;;;;;;;23.38;3.75;;;;;;;-146.27;91.55;81424.09;5027425;28;20030;-75
2023/08/15 03:01:47;;;;;;;14.23;3.35;;;;;;;-146.27;91.19;81404.00;5028479;28;20331;-73
2023/08/15 03:04:12;;;;;;;13.20;2.78;;;;;;;-146.27;90.91;81412.03;5028067;28;20031;-74
2023/08/15 03:06:38;;;;;;;12.98;3.08;;;;;;;-146.27;91.31;81434.13;5022029;28;20053;-75
2023/08/15 03:09:04;;;;;;;11.68;2.92;;;;;;;-146.27;91.50;81480.31;5023323;28;20120;-75
2023/08/15 03:11:29;;;;;;;14.98;2.92;;;;;;;-146.27;91.83;81436.16;5028024;28;20044;-73
2023/08/15 03:13:55;;;;;;;12.73;3.55;;;;;;;-146.27;91.72;81470.28;5028076;28;20030;-73
2023/08/15 03:16:21;;;;;;;14.10;3.45;;;;;;;-146.27;92.28;81444.19;5028795;28;20492;-73
2023/08/15 03:18:47;;;;;;;13.95;2.78;;;;;;;-146.27;91.93;81462.25;5026787;28;20070;-74
2023/08/15 03:21:12;;;;;;;9.10;2.78;;;;;;;-146.27;92.46;81474.31;5029992;28;20033;-72
2023/08/15 03:23:38;;;;;;;11.32;3.10;;;;;;;-146.27;92.63;81466.28;5029875;28;20025;-74
2023/08/15 03:26:04;;;;;;;9.55;3.15;;;;;;;-146.27;92.48;81490.38;5028518;28;20053;-74
2023/08/15 03:28:31;;;;;;;11.02;3.65;;;;;;;-146.27;92.60;81510.44;5027973;28;20049;-75
2023/08/15 03:30:56;;;;;;;13.27;3.35;;;;;;;-146.27;92.69;81498.41;5024466;28;20131;-73
2023/08/15 03:33:23;;;;;;;12.13;3.58;;;;;;;-146.27;93.02;81500.41;5028762;28;20492;-74
2023/08/15 03:35:50;;;;;;;11.90;3.40;;;;;;;-146.27;93.62;81526.53;5025613;28;20048;-73
2023/08/15 03:38:17;;;;;;;11.10;3.17;;;;;;;-146.27;93.57;81524.50;5021310;28;20028;-75
2023/08/15 03:40:44;;;;;;;12.80;3.10;;;;;;;-146.27;93.91;81516.47;5024042;28;20029;-73
2023/08/15 03:43:10;;;;;;;14.60;3.33;;;;;;;-146.27;93.90;81520.50;5028976;28;20567;-74
2023/08/15 03:45:36;;;;;;;16.95;3.25;;;;;;;-146.27;94.00;81504.44;5028987;28;20029;-74
2023/08/15 03:48:01;;;;;;;14.95;3.65;;;;;;;-146.27;94.11;81520.50;5027919;28;20032;-74
2023/08/15 03:50:26;;;;;;;13.13;3.60;;;;;;;-146.27;93.98;81536.56;5028835;28;20100;-73
2023/08/15 03:52:51;;;;;;;13.60;2.88;;;;;;;-146.27;94.60;81596.81;5026562;28;20018;-72
2023/08/15 03:55:17;;;;;;;8.52;3.05;;;;;;;-146.27;95.04;81548.59;5027778;28;20021;-74
2023/08/15 03:57:42;;;;;;;9.85;2.72;;;;;;;-146.27;94.99;81588.78;5029567;28;20035;-74
2023/08/15 04:00:09;;;;;;;10.50;3.05;;;;;;;-146.27;95.47;81584.75;5027261;28;20607;-73
2023/08/15 04:02:35;;;;;;;13.40;3.03;;;;;;;-146.27;95.26;81578.75;5029695;28;20034;-74
2023/08/15 04:05:00;;;;;;;12.82;3.05;;;;;;;-146.27;95.54;81580.75;5022646;28;20028;-74
2023/08/15 04:07:25;;;;;;;10.25;2.67;;;;;;;-146.27;96.17;81616.91;5021692;28;20042;-75
2023/08/15 04:09:51;;;;;;;9.10;3.10;;;;;;;-146.27;95.55;81604.84;5021859;28;20029;-75
2023/08/15 04:12:16;;;;;;;13.23;3.00;;;;;;;-146.27;95.31;81560.66;5021293;28;20035;-74
2023/08/15 04:14:41;;;;;;;12.80;2.78;;;;;;;-146.27;95.69;81568.69;5021660;28;20693;-75
2023/08/15 04:17:07;;;;;;;12.75;2.83;;;;;;;-146.27;95.89;81580.75;5021702;28;20065;-75
2023/08/15 04:19:32;;;;;;;12.45;3.00;;;;;;;-146.27;95.25;81548.59;5026372;28;20029;-75
2023/08/15 04:21:57;;;;;;;19.13;3.38;;;;;;;-146.27;95.17;81530.53;5027342;28;20021;-75
2023/08/15 04:24:23;;;;;;;9.15;2.55;;;;;;;-146.27;95.79;81584.75;5029151;28;20025;-75
2023/08/15 04:26:48;;;;;;;13.95;2.78;;;;;;;-146.27;95.93;81586.78;5032023;28;20370;-74
2023/08/15 04:29:13;;;;;;;14.07;3.45;;;;;;;-146.27;96.29;81592.78;5031307;28;20051;-73
2023/08/15 04:31:41;;;;;;;10.77;3.08;;;;;;;-146.27;96.71;81653.06;5028321;28;20057;-74
2023/08/15 04:34:07;;;;;;;12.13;4.07;;;;;;;-146.27;96.51;81620.91;5030459;28;20033;-74
2023/08/15 04:36:32;;;;;;;11.23;2.85;;;;;;;-146.27;96.19;81580.75;5028352;28;20036;-74
2023/08/15 04:38:57;;;;;;;17.05;3.20;;;;;;;-146.27;96.68;81608.88;5025942;28;20025;-74
2023/08/15 04:41:23;;;;;;;22.25;3.67;;;;;;;-146.27;96.92;81612.88;5026916;28;20033;-76
2023/08/15 04:43:48;;;;;;;11.90;2.97;;;;;;;-146.27;96.49;81596.81;5031462;28;20549;-74
2023/08/15 04:46:13;;;;;;;14.85;3.67;;;;;;;-146.27;96.31;81560.66;5032449;28;20105;-78
2023/08/15 04:48:39;;;;;;;9.68;3.03;;;;;;;-146.27;96.57;81641.00;5028863;28;20112;-79
2023/08/15 04:51:04;;;;;;;17.08;4.95;;;;;;;-146.27;97.07;81602.84;5033354;28;20739;-79
2023/08/15 04:53:29;;;;;;;16.45;3.78;;;;;;;-146.27;97.68;81618.91;5033536;28;20476;-79
2023/08/15 04:55:55;;;;;;;15.73;3.90;;;;;;;-146.27;97.91;81665.09;5034237;28;20017;-77
2023/08/15 04:58:20;;;;;;;23.75;4.25;;;;;;;-146.27;97.48;81632.97;5030699;28;20472;-77
2023/08/15 05:00:46;;;;;;;21.00;4.00;;;;;;;-146.27;97.16;81600.84;5030488;28;20492;-78
2023/08/15 05:03:11;;;;;;;18.27;4.30;;;;;;;-146.27;96.94;81564.69;5032021;28;20066;-79
2023/08/15 05:05:39;;;;;;;16.52;3.50;;;;;;;-146.27;97.17;81600.84;5030260;28;20071;-78
2023/08/15 05:08:06;;;;;;;19.98;4.00;;;;;;;-146.27;96.92;81580.75;5023193;28;20108;-77
2023/08/15 05:10:32;;;;;;;19.13;3.53;;;;;;;-146.27;97.19;81572.72;5025525;28;20068;-77
2023/08/15 05:12:59;;;;;;;11.00;3.25;;;;;;;-146.27;97.27;81574.72;5024188;28;20053;-78
2023/08/15 05:15:25;;;;;;;15.65;3.78;;;;;;;-146.27;97.33;81596.81;5030968;28;20128;-77
2023/08/15 05:17:51;;;;;;;18.58;3.78;;;;;;;-146.27;97.26;81560.66;5022887;28;20109;-78
2023/08/15 05:20:16;;;;;;;16.33;3.83;;;;;;;-146.27;97.20;81530.53;5027844;28;20121;-78
2023/08/15 05:22:42;;;;;;;24.48;3.38;;;;;;;-146.27;96.77;81498.41;5032879;28;20108;-77
2023/08/15 05:25:08;;;;;;;15.43;4.13;;;;;;;-146.27;96.63;81516.47;5031369;28;20045;-79
2023/08/15 05:27:33;;;;;;;13.85;3.95;;;;;;;-146.27;96.42;81536.56;5030495;28;20025;-78
2023/08/15 05:29:58;;;;;;;13.95;3.83;;;;;;;-146.27;96.46;81516.47;5029043;28;20101;-78
2023/08/15 05:32:24;;;;;;;15.98;3.63;;;;;;;-146.27;96.39;81496.41;5031120;28;20761;-79
2023/08/15 05:34:49;;;;;;;14.57;2.70;;;;;;;-146.27;96.50;81480.31;5031112;28;20037;-78
2023/08/15 05:37:15;;;;;;;17.23;3.60;;;;;;;-146.27;96.57;81526.53;5024030;28;20018;-77
2023/08/15 05:39:40;;;;;;;19.80;4.18;;;;;;;-146.27;96.19;81504.44;5027767;28;20035;-70
2023/08/15 05:42:06;;;;;;;19.67;4.35;;;;;;;-146.27;96.19;81524.50;5029681;28;20469;-71
2023/08/15 05:44:31;;;;;;;10.18;4.00;;;;;;;-146.27;96.37;81554.63;5032579;28;20029;-71
2023/08/15 05:46:57;;;;;;;20.83;4.50;;;;;;;-146.27;97.11;81562.66;5031664;28;20033;-70
2023/08/15 05:49:22;;;;;;;22.65;4.40;;;;;;;-146.27;96.93;81568.69;5030895;28;20112;-69
2023/08/15 05:51:47;;;;;;;16.02;4.07;;;;;;;-146.27;96.93;81500.41;5029876;28;20116;-70
2023/08/15 05:54:13;;;;;;;13.70;4.07;;;;;;;-146.27;96.42;81528.53;5025724;28;21690;-69
2023/08/15 05:56:40;;;;;;;11.05;3.78;;;;;;;-146.27;96.14;81528.53;5028000;28;20022;-68
2023/08/15 05:59:05;;;;;;;18.48;4.57;;;;;;;-146.27;96.11;81458.22;5028238;28;20457;-69
2023/08/15 06:01:31;;;;;;;18.45;3.58;;;;;;;-146.27;96.15;81552.63;5030448;28;20048;-70
2023/08/15 06:03:56;;;;;;;16.00;4.07;;;;;;;-146.27;96.11;81504.44;5029242;28;20083;-69
2023/08/15 06:06:22;;;;;;;9.90;3.92;;;;;;;-146.27;95.71;81516.47;5028639;28;20052;-69
2023/08/15 06:08:48;;;;;;;15.70;4.40;;;;;;;-146.27;96.02;81492.38;5029454;28;20025;-68
2023/08/15 06:11:15;;;;;;;12.88;3.95;;;;;;;-146.27;96.05;81484.34;5032354;28;20033;-69
2023/08/15 06:13:40;;;;;;;12.52;4.03;;;;;;;-146.27;95.85;81518.50;5031374;28;20029;-69
2023/08/15 06:16:05;;;;;;;13.85;4.10;;;;;;;-146.27;95.47;81504.44;5027259;28;20029;-68
2023/08/15 06:18:31;;;;;;;10.32;3.45;;;;;;;-146.27;95.78;81506.44;5025665;28;20021;-69
2023/08/15 06:20:56;;;;;;;14.00;4.00;;;;;;;-146.27;95.54;81484.34;5029673;28;20033;-68
2023/08/15 06:23:22;;;;;;;14.18;3.60;;;;;;;-146.27;95.50;81500.41;5028736;28;20104;-69
2023/08/15 06:25:47;;;;;;;14.48;4.20;;;;;;;-146.27;95.04;81452.22;5028055;28;20029;-68
2023/08/15 06:28:12;;;;;;;18.05;4.40;;;;;;;-146.27;94.62;81480.31;5029702;28;20036;-67
2023/08/15 06:30:41;;;;;;;14.70;4.65;;;;;;;-146.27;93.87;81412.03;5029125;28;20025;-69
2023/08/15 06:33:06;;;;;;;9.10;3.28;;;;;;;-146.27;93.68;81339.75;5025464;28;20457;-68
2023/08/15 06:35:32;;;;;;;19.63;4.85;;;;;;;-146.27;93.12;81383.94;5026132;28;20025;-68
2023/08/15 06:37:57;;;;;;;16.73;3.72;;;;;;;-146.27;93.15;81355.81;5028328;28;20052;-69
2023/08/15 06:40:23;;;;;;;17.35;5.63;;;;;;;-146.27;92.28;81301.59;5025172;28;20068;-69
2023/08/15 06:42:48;;;;;;;14.82;4.55;;;;;;;-146.27;92.04;81337.75;5026594;28;20465;-70
2023/08/15 06:45:16;;;;;;;12.85;3.95;;;;;;;-146.27;92.16;81287.53;5018199;28;20033;-69
2023/08/15 06:47:42;;;;;;;12.30;4.40;;;;;;;-146.27;91.78;81299.59;5030442;28;20029;-69
2023/08/15 06:50:08;;;;;;;10.90;5.07;;;;;;;-146.27;91.42;81275.47;5027071;28;20065;-70
2023/08/15 06:52:34;;;;;;;9.07;4.80;;;;;;;-146.27;91.00;81265.44;5029388;28;20091;-71
2023/08/15 06:55:03;;;;;;;14.45;4.85;;;;;;;-146.27;90.72;81279.50;5022238;28;20021;-69
2023/08/15 06:57:28;;;;;;;14.88;5.68;;;;;;;-146.27;90.57;81251.38;5016967;28;20477;-70
2023/08/15 06:59:54;;;;;;;19.13;6.00;;;;;;;-146.27;90.25;81263.44;5027048;28;20017;-69
2023/08/15 07:02:20;;;;;;;19.67;6.70;;;;;;;-146.27;90.16;81291.53;5014777;28;20513;-68
2023/08/15 07:04:47;;;;;;;18.08;6.43;;;;;;;-146.27;90.77;81351.78;5022496;28;20393;-71
2023/08/15 07:07:13;;;;;;;12.95;6.13;;;;;;;-146.27;90.58;81319.66;5023196;28;20038;-70
2023/08/15 07:09:38;;;;;;;10.27;6.32;;;;;;;-146.27;90.34;81343.75;5018892;28;20080;-71
2023/08/15 07:12:05;;;;;;;12.35;4.95;;;;;;;-146.27;90.61;81279.50;5023380;28;20025;-68
2023/08/15 07:14:33;;;;;;;13.98;5.63;;;;;;;-146.27;90.18;81219.25;5023002;28;20041;-71
2023/08/15 07:17:00;;;;;;;11.43;4.80;;;;;;;-146.27;89.60;81161.00;5027538;28;20715;-71
2023/08/15 07:19:25;;;;;;;21.88;5.35;;;;;;;-146.27;88.83;81155.00;5027236;28;20025;-71
2023/08/15 07:21:50;;;;;;;15.18;4.50;;;;;;;-146.27;88.31;81171.06;5026189;28;20036;-71
2023/08/15 07:24:21;;;;;;;14.85;4.20;;;;;;;-146.27;88.19;81074.66;5028467;28;20070;-71
2023/08/15 07:26:46;;;;;;;10.07;3.88;;;;;;;-146.27;87.58;81104.78;5028469;28;20233;-72
2023/08/15 07:29:12;;;;;;;8.88;3.63;;;;;;;-146.27;87.12;81211.22;5028500;28;20065;-71
2023/08/15 07:31:38;;;;;;;9.63;3.15;;;;;;;-146.27;87.05;81114.81;5027275;28;20687;-71
2023/08/15 07:34:03;;;;;;;10.38;3.40;;;;;;;-146.27;86.62;81102.78;5026123;28;20049;-72
2023/08/15 07:36:29;;;;;;;12.77;3.67;;;;;;;-146.27;86.32;81098.75;5027833;28;20029;-70
2023/08/15 07:38:54;;;;;;;13.95;3.35;;;;;;;-146.27;85.94;81060.59;5024637;28;20017;-71
2023/08/15 07:41:19;;;;;;;8.25;3.47;;;;;;;-146.27;85.75;81086.72;5028794;28;20489;-71
2023/08/15 07:43:45;;;;;;;11.75;3.50;;;;;;;-146.27;85.59;81054.56;5030544;28;20018;-71
2023/08/15 07:46:10;;;;;;;14.52;3.60;;;;;;;-146.27;86.21;81150.97;5030608;28;20497;-71
2023/08/15 07:48:36;;;;;;;12.75;2.85;;;;;;;-146.27;85.56;81086.72;5030239;28;20030;-72
2023/08/15 07:51:01;;;;;;;20.85;4.70;;;;;;;-146.27;85.51;81078.69;5029404;28;20036;-71
2023/08/15 07:53:26;;;;;;;9.95;3.38;;;;;;;-146.27;86.78;81197.16;5030378;28;20026;-70
2023/08/15 07:55:52;;;;;;;6.65;3.40;;;;;;;-146.27;86.93;81130.88;5030476;28;20018;-70
2023/08/15 07:58:17;;;;;;;10.50;3.20;;;;;;;-146.27;87.13;81169.03;5029783;28;20018;-70
2023/08/15 08:00:43;;;;;;;8.52;3.35;;;;;;;-146.27;87.10;81183.09;5028356;28;20057;-72
2023/08/15 08:03:08;;;;;;;11.85;3.42;;;;;;;-146.27;86.61;81167.03;5030243;28;20053;-70
2023/08/15 08:05:34;;;;;;;7.68;3.22;;;;;;;-146.27;86.50;81146.97;5030190;28;20462;-71
2023/08/15 08:08:01;;;;;;;10.50;3.67;;;;;;;-146.27;86.40;81106.78;5029864;28;20528;-71
2023/08/15 08:10:27;;;;;;;13.82;3.88;;;;;;;-146.27;86.68;81167.03;5028368;28;20113;-70
2023/08/15 08:12:52;;;;;;;14.00;4.15;;;;;;;-146.27;86.68;81159.00;5030239;28;20108;-70
2023/08/15 08:15:18;;;;;;;17.80;4.80;;;;;;;-146.27;87.02;81183.09;5027115;28;20388;-69
2023/08/15 08:17:44;;;;;;;10.20;4.32;;;;;;;-146.27;87.26;81138.91;5030324;28;20017;-69
2023/08/15 08:20:13;;;;;;;15.43;4.63;;;;;;;-146.27;87.92;81175.06;5028008;28;20547;-69
2023/08/15 08:22:39;;;;;;;11.23;4.13;;;;;;;-146.27;87.90;81163.03;5028594;28;20067;-69
2023/08/15 08:25:16;;;;;;;11.25;4.38;;;;;;;-146.27;87.94;81108.81;5029325;28;20036;-69
2023/08/15 08:27:44;;;;;;;11.07;4.60;;;;;;;-146.27;88.20;81126.88;5029418;28;20124;-70
2023/08/15 08:30:11;;;;;;;10.43;3.92;;;;;;;-146.27;88.03;81070.66;5028043;28;20033;-69
2023/08/15 08:32:36;;;;;;;6.88;3.35;;;;;;;-146.27;88.31;81082.69;5022975;28;20117;-68
2023/08/15 08:35:01;;;;;;;7.55;3.70;;;;;;;-146.27;88.51;81155.00;5028099;28;20100;-68
2023/08/15 08:37:27;;;;;;;14.13;4.05;;;;;;;-146.27;88.28;81120.84;5024796;28;20037;-69
2023/08/15 08:39:52;;;;;;;11.68;4.00;;;;;;;-146.27;87.89;81130.88;5026572;28;20032;-68
2023/08/15 08:42:18;;;;;;;7.93;3.88;;;;;;;-146.27;88.29;81092.72;5027121;28;20021;-71
2023/08/15 08:44:46;;;;;;;7.18;3.28;;;;;;;-146.27;89.34;81221.25;5030018;28;20029;-69
2023/08/15 08:47:12;;;;;;;6.63;3.10;;;;;;;-146.27;89.50;81203.19;5025565;28;20029;-69
2023/08/15 08:49:38;;;;;;;3.63;2.40;;;;;;;-146.27;89.29;81229.28;5027448;28;20033;-68
2023/08/15 08:52:04;;;;;;;2.42;2.05;;;;;;;-146.27;89.05;81239.34;5027578;28;20140;-69
2023/08/15 08:54:30;;;;;;;4.60;2.25;;;;;;;-146.27;89.33;81171.06;5029198;28;20446;-69
2023/08/15 08:56:55;;;;;;;4.60;2.13;;;;;;;-146.27;88.40;81179.09;5028437;28;20060;-68
2023/08/15 08:59:23;;;;;;;4.75;1.85;;;;;;;-146.27;87.97;81118.84;5028626;28;20033;-70
2023/08/15 09:01:49;;;;;;;5.00;2.17;;;;;;;-146.27;87.59;81181.09;5023586;28;20025;-69
2023/08/15 09:04:18;;;;;;;6.60;2.10;;;;;;;-146.27;87.56;81130.88;5029900;28;20030;-68
2023/08/15 09:06:43;;;;;;;2.58;2.00;;;;;;;-146.27;86.91;81130.88;5028384;28;20456;-69
2023/08/15 09:09:09;;;;;;;7.10;2.53;;;;;;;-146.27;87.46;81082.69;5028260;28;20029;-68
2023/08/15 09:11:36;;;;;;;4.47;1.83;;;;;;;-146.27;85.97;81118.84;5023983;28;20018;-68
2023/08/15 09:14:03;;;;;;;6.15;2.15;;;;;;;-146.27;85.69;81058.59;5019043;28;20026;-69
2023/08/15 09:16:32;;;;;;;5.22;1.92;;;;;;;-146.27;85.14;81062.59;5023952;28;20496;-68
2023/08/15 09:19:04;;;;;;;6.28;1.90;;;;;;;-146.27;84.87;81012.41;5024858;28;20083;-68
2023/08/15 09:21:29;;;;;;;6.53;2.45;;;;;;;-146.27;85.04;81114.81;5023907;28;20048;-68
2023/08/15 09:23:59;;;;;;;3.58;1.75;;;;;;;-146.27;85.63;81090.72;5027014;28;20033;-67
2023/08/15 09:26:25;;;;;;;2.22;1.73;;;;;;;-146.27;86.39;81096.75;5033419;28;20022;-70
2023/08/15 09:28:50;;;;;;;4.38;1.90;;;;;;;-146.27;87.65;81199.16;5032990;28;20032;-68
2023/08/15 09:31:16;;;;;;;4.32;1.83;;;;;;;-146.27;87.79;81118.84;5031907;28;20037;-69
2023/08/15 09:33:42;;;;;;;4.45;1.63;;;;;;;-146.27;87.62;81074.66;5030030;28;20477;-69
2023/08/15 09:36:10;;;;;;;3.78;1.20;;;;;;;-146.27;87.59;81118.84;5031507;28;20027;-69
2023/08/15 09:38:37;;;;;;;3.50;1.30;;;;;;;-146.27;87.71;81084.69;5030025;28;20029;-70
2023/08/15 09:41:02;;;;;;;2.70;1.27;;;;;;;-146.27;87.64;81008.41;5030540;28;20048;-69
2023/08/15 09:43:29;;;;;;;2.38;1.10;;;;;;;-146.27;87.32;81002.38;5031639;28;20025;-70
2023/08/15 09:45:55;;;;;;;1.63;1.30;;;;;;;-146.27;88.38;81038.50;5031585;28;20034;-69
2023/08/15 09:48:22;;;;;;;2.70;1.15;;;;;;;-146.27;88.63;81094.75;5031294;28;20560;-69
2023/08/15 09:50:48;;;;;;;1.50;0.82;;;;;;;-146.27;88.24;81114.81;5031453;28;20568;-68
2023/08/15 09:53:14;;;;;;;2.35;0.80;;;;;;;-146.27;88.41;81074.66;5032250;28;20433;-69
2023/08/15 09:55:40;;;;;;;1.67;0.60;;;;;;;-146.27;87.89;81098.75;5031330;28;20108;-69
2023/08/15 09:58:07;;;;;;;1.58;0.90;;;;;;;-146.27;86.77;81058.59;5030361;28;20061;-69
2023/08/15 10:00:35;;;;;;;1.90;1.10;;;;;;;-146.27;86.57;80966.22;5029435;28;20044;-69
2023/08/15 10:03:09;;;;;;;2.65;1.00;;;;;;;-146.27;85.94;81000.34;5024829;28;20017;-70
2023/08/15 10:05:38;;;;;;;2.38;1.13;;;;;;;-146.27;85.53;81020.44;5032471;28;20043;-70
2023/08/15 10:08:04;;;;;;;1.48;1.00;;;;;;;-146.27;84.77;80958.19;5030978;28;20096;-70
2023/08/15 10:10:36;;;;;;;2.40;1.30;;;;;;;-146.27;85.60;81050.56;5029385;28;20029;-69
2023/08/15 10:13:02;;;;;;;3.97;1.33;;;;;;;-146.27;85.42;81062.59;5032014;28;20563;-70
2023/08/15 10:15:30;;;;;;;2.22;1.02;;;;;;;-146.27;85.47;81024.47;5030598;28;20109;-69
2023/08/15 10:17:57;;;;;;;2.78;1.15;;;;;;;-146.27;84.27;81078.69;5032259;28;20481;-69
2023/08/15 10:20:23;;;;;;;1.83;1.13;;;;;;;-146.27;84.36;81050.56;5027589;28;20029;-69
2023/08/15 10:22:57;;;;;;;4.07;1.30;;;;;;;-146.27;84.40;81050.56;5022193;28;20442;-69
2023/08/15 10:25:23;;;;;;;6.43;1.63;;;;;;;-146.27;84.79;81042.53;5029448;28;20084;-68
2023/08/15 10:27:50;;;;;;;2.95;1.40;;;;;;;-146.27;84.21;80986.31;5031049;28;20497;-69
2023/08/15 10:30:33;;;;;;;5.10;1.38;;;;;;;-146.27;83.58;80910.00;5026747;28;20539;-70
2023/08/15 10:33:11;;;;;;;3.58;1.42;;;;;;;-146.27;83.53;80938.09;5024118;28;20044;-69
2023/08/15 10:35:36;;;;;;;2.60;1.00;;;;;;;-146.27;82.96;80958.19;5029510;28;20105;-68
2023/08/15 10:38:13;;;;;;;3.92;1.10;;;;;;;-146.27;82.73;80910.00;5031683;28;20116;-69
2023/08/15 10:40:41;;;;;;;4.72;1.25;;;;;;;-146.27;82.39;80837.72;5031865;28;20026;-69
2023/08/15 10:43:11;;;;;;;1.85;1.15;;;;;;;-146.27;82.11;80853.78;5030253;28;20481;-68
2023/08/15 10:45:46;;;;;;;4.60;1.00;;;;;;;-146.27;83.77;80992.31;5028446;28;20087;-68
2023/08/15 10:48:12;;;;;;;2.78;1.27;;;;;;;-146.27;84.44;80952.16;5031458;28;20029;-69
2023/08/15 10:50:46;;;;;;;2.75;1.30;;;;;;;-146.27;84.36;80978.28;5031771;28;20481;-71
2023/08/15 10:53:12;;;;;;;8.48;1.70;;;;;;;-146.27;84.48;81026.47;5031399;28;20397;-74
2023/08/15 10:55:39;;;;;;;2.83;1.10;;;;;;;-146.27;83.79;80952.16;5029254;28;20040;-69
2023/08/15 10:58:10;;;;;;;5.93;1.40;;;;;;;-146.27;83.23;80905.97;5031486;28;20022;-69
2023/08/15 11:00:36;;;;;;;5.78;1.83;;;;;;;-146.27;81.90;80948.16;5027518;28;20033;-68
2023/08/15 11:03:02;;;;;;;5.85;1.20;;;;;;;-146.27;80.84;80942.13;5030747;28;20510;-71
2023/08/15 11:05:40;;;;;;;7.75;1.65;;;;;;;-146.27;80.94;80940.13;5027307;28;20056;-72
2023/08/15 11:08:10;;;;;;;4.63;1.20;;;;;;;-146.27;80.62;80958.19;5028322;28;20034;-72